Aérodrome :
LOGIN :

S'inscrire | Disclaimer

   EN    FR    IT 

 










Légende :    VFR   VFR Marginal   IFR   IFR Intensif   IFR Très Intensif
Visi : 
Plafond : 
>= 8 km
>= 3000ft
5 à 8 km
1000 à 3000 ft
1500m à 5 km
500 à 1000 ft
800 à 1500m
200 à 500 ft
< 800m
< 200 ft
Symboles :   Orages  Brouillard  Fortes neiges  Fortes précipitations  Vent > 20 kt
SIGMETs :   Divers  Orages  Givrage  Turbulence  Onde Orograph.  Cendres Volcan.







- Altitude de l'aérodrome : 72 ft
- Code IATA : UDE


EHVK - Volkel Airbase

DERNIER METAR :
  • 181225Z AUTO VRB03KT 9999 FEW056 SCT061 BKN200 27/13 Q1013 BLU VRB03KT CAVOK

METARs EXPIRÉS :
  • 181155Z AUTO 10005KT 270V020 9999 SCT055 BKN061 OVC250 26/14 Q1013 BLU VRB03KT 9999 FEW040
  • 181125Z AUTO VRB02KT 9999 OVC190 27/13 Q1014 BLU VRB03KT 9999 FEW040
  • 181055Z AUTO 36004KT 300V110 9999 OVC240 26/14 Q1014 BLU VRB03KT 9999 FEW040
  • 181025Z AUTO 08005KT 310V050 9999 OVC250 26/14 Q1014 BLU VRB03KT 9999 FEW040
  • 181009Z AUTO 04003KT 330V090 9999 OVC250 26/15 Q1014 BLU VRB03KT 9999 FEW040
  • 180955Z AUTO 01004KT 350V100 9999 OVC240 26/15 Q1014 BLU VRB03KT CAVOK

TAF TAF EHVK
Valide du 18 à 09h jusqu'au 18 à 21h UTC


180811Z 1809/1821 VRB03KT CAVOK
BECMG 1818/1821 06004KT
Pas de NOTAMs connus pour ce terrain.



MET'MAP, la Météo Aéronautique d'un coup d'oeil ! - Copyright ORBIFLY Décembre 2007 - Disclaimer

ORBIFLY MET'MAP TEAM :

Programmation & Développement : Alexandra Zaïnal
Conception & Développement : Baudouin d'Aumeries
Co-Programmation & Développement : Marc-Olivier Méhu
Soutien technique & logistique : Manuel Goepfert

Contact : metmap@orbifly.com




SOURCES & CREDITS :

   NOAA